MST,Max TemperatureF,Mean TemperatureF,Min TemperatureF,Max Dew PointF,MeanDew PointF,Min DewpointF,Max Humidity, Mean Humidity, Min Humidity, Max Sea Level PressureIn, Mean Sea Level PressureIn, Min Sea Level PressureIn, Max VisibilityMiles, Mean VisibilityMiles, Min VisibilityMiles, Max Wind SpeedMPH, Mean Wind SpeedMPH, Max Gust SpeedMPH,PrecipitationIn, CloudCover, Events, WindDirDegrees
2013-2-1,55,41,26,21,18,14,69,46,22,30.30,30.24,30.16,10,10,10,20,5,25,0.00,0,,336
2013-2-2,56,44,32,21,19,14,59,40,20,30.38,30.32,30.26,10,10,10,17,6,22,0.00,5,,356
2013-2-3,51,40,28,28,19,15,58,41,24,30.29,30.12,29.98,10,10,10,16,4,21,0.00,8,,344
2013-2-4,56,46,35,28,23,16,70,47,24,30.10,30.02,29.95,10,10,10,23,9,29,0.00,0,,348
2013-2-5,59,46,33,22,17,12,56,37,17,30.09,30.01,29.93,10,10,10,13,5,16,0.00,0,,1
2013-2-6,60,44,27,26,20,14,53,40,26,30.01,29.91,29.80,10,10,10,18,7,24,0.00,3,,307
2013-2-7,56,43,30,25,20,11,61,40,18,30.16,30.06,29.94,10,10,10,17,4,21,0.00,1,,96
2013-2-8,57,46,35,21,19,16,52,38,23,30.06,29.89,29.68,10,10,10,32,13,39,0.00,6,,143
2013-2-9,49,40,30,23,12,4,58,39,20,29.86,29.68,29.55,10,10,7,38,15,53,0.00,3,,226
2013-2-10,43,34,24,21,13,7,60,42,24,29.99,29.92,29.86,10,10,10,21,9,25,0.00,4,,235
2013-2-11,46,34,21,21,16,3,84,50,16,30.06,29.99,29.91,10,10,10,22,8,29,0.00,5,,324
2013-2-12,42,33,24,22,11,3,69,45,20,30.22,30.12,29.96,10,10,10,23,11,30,0.00,2,,336
2013-2-13,48,34,19,17,11,8,62,42,21,30.23,30.15,30.04,10,10,10,20,10,26,0.00,0,,346
2013-2-14,52,38,23,18,16,13,65,43,21,30.20,30.11,30.01,10,10,10,26,11,32,0.00,0,,342
2013-2-15,52,39,25,22,12,0,75,44,12,30.37,30.28,30.19,10,10,10,29,9,39,0.00,0,,10
2013-2-16,58,43,27,10,5,-2,43,27,10,30.44,30.29,30.12,10,10,10,12,5,15,0.00,0,,315
2013-2-17,59,42,25,6,1,-2,34,21,8,30.13,29.89,29.68,10,10,10,26,8,33,0.00,1,,245
2013-2-18,53,42,30,17,-5,-20,44,24,4,30.08,29.96,29.75,10,10,10,22,12,29,0.00,1,,328
2013-2-19,60,43,25,34,5,-12,65,37,9,30.06,29.89,29.69,10,10,10,35,14,43,0.00,4,,135
2013-2-20,51,42,32,34,25,13,76,50,23,29.75,29.56,29.45,10,10,7,29,16,41,T,7,,206
2013-2-21,46,37,27,27,23,19,92,65,37,29.90,29.74,29.53,10,8,0,22,10,28,0.22,7,Fog-Snow,235
2013-2-22,45,36,27,23,20,12,75,52,29,30.07,29.95,29.88,10,10,10,25,11,32,T,5,,213
2013-2-23,47,35,22,18,12,7,65,44,23,30.13,29.92,29.71,10,10,10,21,6,26,0.00,2,,190
2013-2-24,43,35,27,25,16,3,63,43,22,29.91,29.77,29.62,10,8,1,32,13,45,0.02,7,Snow,331
2013-2-25,49,37,24,24,10,-1,85,50,14,30.12,30.00,29.92,10,10,10,22,8,28,T,2,,331
2013-2-26,48,35,21,16,5,-11,71,41,11,30.08,29.93,29.81,10,10,10,33,13,44,0.00,0,,311
2013-2-27,44,31,18,9,4,-2,62,40,17,30.34,30.25,30.10,10,10,10,15,3,18,0.00,0,,21
2013-2-28,52,40,27,6,2,-5,37,23,9,30.37,30.28,30.20,10,10,10,22,8,29,0.00,1,,350